sensor_id;sensor_type;location;lat;lon;timestamp;P1;durP1;ratioP1;P2;durP2;ratioP2
32810;SDS011;65470;47.324;8.548;2023-06-10T00:00:33;9.02;;;5.18;;
32810;SDS011;65470;47.324;8.548;2023-06-10T00:02:59;5.82;;;4.95;;
32810;SDS011;65470;47.324;8.548;2023-06-10T00:05:25;5.18;;;4.70;;
32810;SDS011;65470;47.324;8.548;2023-06-10T00:07:54;5.95;;;5.35;;
32810;SDS011;65470;47.324;8.548;2023-06-10T00:10:21;5.72;;;5.22;;
32810;SDS011;65470;47.324;8.548;2023-06-10T00:12:47;8.48;;;5.20;;
32810;SDS011;65470;47.324;8.548;2023-06-10T00:15:12;5.93;;;5.20;;
32810;SDS011;65470;47.324;8.548;2023-06-10T00:17:38;5.90;;;5.10;;
32810;SDS011;65470;47.324;8.548;2023-06-10T00:20:05;6.25;;;5.32;;
32810;SDS011;65470;47.324;8.548;2023-06-10T00:22:37;8.98;;;5.75;;
32810;SDS011;65470;47.324;8.548;2023-06-10T00:25:04;6.18;;;4.93;;
32810;SDS011;65470;47.324;8.548;2023-06-10T00:27:31;5.90;;;5.35;;
32810;SDS011;65470;47.324;8.548;2023-06-10T00:30:00;6.15;;;5.50;;
32810;SDS011;65470;47.324;8.548;2023-06-10T00:32:29;6.25;;;5.05;;
32810;SDS011;65470;47.324;8.548;2023-06-10T00:34:56;7.25;;;4.82;;
32810;SDS011;65470;47.324;8.548;2023-06-10T00:37:21;6.43;;;5.20;;
32810;SDS011;65470;47.324;8.548;2023-06-10T00:39:47;7.25;;;5.85;;
32810;SDS011;65470;47.324;8.548;2023-06-10T00:42:13;6.40;;;5.80;;
32810;SDS011;65470;47.324;8.548;2023-06-10T00:44:38;5.70;;;5.18;;
32810;SDS011;65470;47.324;8.548;2023-06-10T00:47:04;5.63;;;5.05;;
32810;SDS011;65470;47.324;8.548;2023-06-10T00:49:31;6.75;;;6.15;;
32810;SDS011;65470;47.324;8.548;2023-06-10T00:51:57;7.43;;;5.63;;
32810;SDS011;65470;47.324;8.548;2023-06-10T00:54:23;6.53;;;5.70;;
32810;SDS011;65470;47.324;8.548;2023-06-10T00:56:50;6.35;;;5.35;;
32810;SDS011;65470;47.324;8.548;2023-06-10T00:59:16;7.20;;;5.78;;
32810;SDS011;65470;47.324;8.548;2023-06-10T01:01:43;8.68;;;5.15;;
32810;SDS011;65470;47.324;8.548;2023-06-10T01:04:12;7.47;;;5.63;;
32810;SDS011;65470;47.324;8.548;2023-06-10T01:06:46;5.90;;;5.40;;
32810;SDS011;65470;47.324;8.548;2023-06-10T01:15:01;6.07;;;5.43;;
32810;SDS011;65470;47.324;8.548;2023-06-10T01:17:28;7.10;;;5.60;;
32810;SDS011;65470;47.324;8.548;2023-06-10T01:19:58;8.02;;;5.35;;
32810;SDS011;65470;47.324;8.548;2023-06-10T01:22:24;7.05;;;5.50;;
32810;SDS011;65470;47.324;8.548;2023-06-10T01:24:53;5.40;;;4.90;;
32810;SDS011;65470;47.324;8.548;2023-06-10T01:27:23;7.35;;;5.85;;
32810;SDS011;65470;47.324;8.548;2023-06-10T01:29:58;8.00;;;5.75;;
32810;SDS011;65470;47.324;8.548;2023-06-10T01:32:32;7.53;;;5.95;;
32810;SDS011;65470;47.324;8.548;2023-06-10T01:35:02;8.68;;;5.50;;
32810;SDS011;65470;47.324;8.548;2023-06-10T01:37:30;5.97;;;5.43;;
32810;SDS011;65470;47.324;8.548;2023-06-10T01:39:57;6.35;;;5.75;;
32810;SDS011;65470;47.324;8.548;2023-06-10T01:42:28;6.10;;;5.50;;
32810;SDS011;65470;47.324;8.548;2023-06-10T01:44:54;7.78;;;6.07;;
32810;SDS011;65470;47.324;8.548;2023-06-10T01:47:20;6.35;;;5.65;;
32810;SDS011;65470;47.324;8.548;2023-06-10T01:49:46;8.73;;;5.97;;
32810;SDS011;65470;47.324;8.548;2023-06-10T01:52:11;8.68;;;6.13;;
32810;SDS011;65470;47.324;8.548;2023-06-10T01:54:37;7.97;;;6.35;;
32810;SDS011;65470;47.324;8.548;2023-06-10T01:57:03;8.45;;;6.43;;
32810;SDS011;65470;47.324;8.548;2023-06-10T01:59:31;6.35;;;5.65;;
32810;SDS011;65470;47.324;8.548;2023-06-10T02:05:18;8.23;;;6.32;;
32810;SDS011;65470;47.324;8.548;2023-06-10T02:07:44;8.93;;;5.88;;
32810;SDS011;65470;47.324;8.548;2023-06-10T02:10:10;5.82;;;5.32;;
32810;SDS011;65470;47.324;8.548;2023-06-10T02:12:35;6.38;;;5.78;;
32810;SDS011;65470;47.324;8.548;2023-06-10T02:15:01;6.25;;;5.65;;
32810;SDS011;65470;47.324;8.548;2023-06-10T02:17:27;6.88;;;6.18;;
32810;SDS011;65470;47.324;8.548;2023-06-10T02:19:53;7.03;;;5.85;;
32810;SDS011;65470;47.324;8.548;2023-06-10T02:22:19;8.13;;;6.38;;
32810;SDS011;65470;47.324;8.548;2023-06-10T02:24:46;8.15;;;6.20;;
32810;SDS011;65470;47.324;8.548;2023-06-10T02:27:12;6.80;;;6.18;;
32810;SDS011;65470;47.324;8.548;2023-06-10T02:29:38;5.95;;;5.45;;
32810;SDS011;65470;47.324;8.548;2023-06-10T02:32:04;7.65;;;5.95;;
32810;SDS011;65470;47.324;8.548;2023-06-10T02:34:30;7.25;;;5.95;;
32810;SDS011;65470;47.324;8.548;2023-06-10T02:36:56;7.35;;;6.10;;
32810;SDS011;65470;47.324;8.548;2023-06-10T02:39:22;6.68;;;6.05;;
32810;SDS011;65470;47.324;8.548;2023-06-10T02:41:47;6.65;;;6.03;;
32810;SDS011;65470;47.324;8.548;2023-06-10T02:44:13;7.18;;;5.70;;
32810;SDS011;65470;47.324;8.548;2023-06-10T02:46:39;9.30;;;6.03;;
32810;SDS011;65470;47.324;8.548;2023-06-10T02:49:04;7.70;;;6.68;;
32810;SDS011;65470;47.324;8.548;2023-06-10T02:51:30;6.60;;;6.00;;
32810;SDS011;65470;47.324;8.548;2023-06-10T02:53:55;8.30;;;7.20;;
32810;SDS011;65470;47.324;8.548;2023-06-10T02:56:21;9.20;;;6.40;;
32810;SDS011;65470;47.324;8.548;2023-06-10T02:58:47;8.80;;;6.60;;
32810;SDS011;65470;47.324;8.548;2023-06-10T03:01:13;6.68;;;6.05;;
32810;SDS011;65470;47.324;8.548;2023-06-10T03:03:39;11.90;;;6.82;;
32810;SDS011;65470;47.324;8.548;2023-06-10T03:06:07;7.57;;;6.65;;
32810;SDS011;65470;47.324;8.548;2023-06-10T03:08:35;8.15;;;6.18;;
32810;SDS011;65470;47.324;8.548;2023-06-10T03:11:02;9.10;;;6.65;;
32810;SDS011;65470;47.324;8.548;2023-06-10T03:13:27;7.13;;;6.43;;
32810;SDS011;65470;47.324;8.548;2023-06-10T03:15:53;7.63;;;6.70;;
32810;SDS011;65470;47.324;8.548;2023-06-10T03:18:18;8.30;;;7.03;;
32810;SDS011;65470;47.324;8.548;2023-06-10T03:20:45;7.30;;;6.57;;
32810;SDS011;65470;47.324;8.548;2023-06-10T03:23:11;7.15;;;6.45;;
32810;SDS011;65470;47.324;8.548;2023-06-10T03:25:36;7.55;;;6.75;;
32810;SDS011;65470;47.324;8.548;2023-06-10T03:28:02;8.82;;;7.13;;
32810;SDS011;65470;47.324;8.548;2023-06-10T03:30:28;8.98;;;6.00;;
32810;SDS011;65470;47.324;8.548;2023-06-10T03:32:53;7.90;;;6.75;;
32810;SDS011;65470;47.324;8.548;2023-06-10T03:35:19;10.43;;;6.72;;
32810;SDS011;65470;47.324;8.548;2023-06-10T03:37:45;7.18;;;6.57;;
32810;SDS011;65470;47.324;8.548;2023-06-10T03:40:11;8.45;;;6.53;;
32810;SDS011;65470;47.324;8.548;2023-06-10T03:42:37;7.97;;;7.13;;
32810;SDS011;65470;47.324;8.548;2023-06-10T03:45:02;9.23;;;7.28;;
32810;SDS011;65470;47.324;8.548;2023-06-10T03:47:35;9.32;;;7.68;;
32810;SDS011;65470;47.324;8.548;2023-06-10T03:50:05;8.38;;;7.35;;
32810;SDS011;65470;47.324;8.548;2023-06-10T03:52:31;8.20;;;7.40;;
32810;SDS011;65470;47.324;8.548;2023-06-10T03:54:57;8.18;;;7.47;;
32810;SDS011;65470;47.324;8.548;2023-06-10T03:57:23;10.90;;;7.70;;
32810;SDS011;65470;47.324;8.548;2023-06-10T03:59:48;8.65;;;7.43;;
32810;SDS011;65470;47.324;8.548;2023-06-10T04:02:14;8.00;;;7.07;;
32810;SDS011;65470;47.324;8.548;2023-06-10T04:04:39;8.30;;;7.57;;
32810;SDS011;65470;47.324;8.548;2023-06-10T04:07:06;7.88;;;7.18;;
32810;SDS011;65470;47.324;8.548;2023-06-10T04:09:33;10.32;;;7.65;;
32810;SDS011;65470;47.324;8.548;2023-06-10T04:11:58;9.07;;;8.07;;
32810;SDS011;65470;47.324;8.548;2023-06-10T04:14:24;8.15;;;7.40;;
32810;SDS011;65470;47.324;8.548;2023-06-10T04:16:50;8.27;;;7.47;;
32810;SDS011;65470;47.324;8.548;2023-06-10T04:19:16;8.82;;;7.03;;
32810;SDS011;65470;47.324;8.548;2023-06-10T04:21:42;8.68;;;7.85;;
32810;SDS011;65470;47.324;8.548;2023-06-10T04:24:07;8.25;;;7.45;;
32810;SDS011;65470;47.324;8.548;2023-06-10T04:26:34;7.95;;;7.05;;
32810;SDS011;65470;47.324;8.548;2023-06-10T04:29:00;7.88;;;7.07;;
32810;SDS011;65470;47.324;8.548;2023-06-10T04:31:26;7.97;;;7.28;;
32810;SDS011;65470;47.324;8.548;2023-06-10T04:33:52;12.63;;;7.35;;
32810;SDS011;65470;47.324;8.548;2023-06-10T04:36:18;10.63;;;6.97;;
32810;SDS011;65470;47.324;8.548;2023-06-10T04:38:44;8.52;;;7.57;;
32810;SDS011;65470;47.324;8.548;2023-06-10T04:41:09;10.75;;;7.18;;
32810;SDS011;65470;47.324;8.548;2023-06-10T04:43:35;7.20;;;6.53;;
32810;SDS011;65470;47.324;8.548;2023-06-10T04:46:01;7.18;;;6.47;;
32810;SDS011;65470;47.324;8.548;2023-06-10T04:48:27;7.95;;;7.25;;
32810;SDS011;65470;47.324;8.548;2023-06-10T04:50:53;7.97;;;7.00;;
32810;SDS011;65470;47.324;8.548;2023-06-10T04:53:18;7.93;;;7.13;;
32810;SDS011;65470;47.324;8.548;2023-06-10T04:55:44;9.63;;;7.47;;
32810;SDS011;65470;47.324;8.548;2023-06-10T04:58:10;9.32;;;7.15;;
32810;SDS011;65470;47.324;8.548;2023-06-10T05:00:36;8.60;;;7.38;;
32810;SDS011;65470;47.324;8.548;2023-06-10T05:03:01;8.48;;;7.43;;
32810;SDS011;65470;47.324;8.548;2023-06-10T05:05:27;8.88;;;7.93;;
32810;SDS011;65470;47.324;8.548;2023-06-10T05:07:52;11.80;;;7.30;;
32810;SDS011;65470;47.324;8.548;2023-06-10T05:10:18;8.85;;;7.65;;
32810;SDS011;65470;47.324;8.548;2023-06-10T05:12:44;9.25;;;7.45;;
32810;SDS011;65470;47.324;8.548;2023-06-10T05:15:10;9.00;;;7.43;;
32810;SDS011;65470;47.324;8.548;2023-06-10T05:17:36;9.82;;;7.43;;
32810;SDS011;65470;47.324;8.548;2023-06-10T05:20:02;8.07;;;7.28;;
32810;SDS011;65470;47.324;8.548;2023-06-10T05:22:28;9.07;;;7.22;;
32810;SDS011;65470;47.324;8.548;2023-06-10T05:24:54;8.65;;;7.75;;
32810;SDS011;65470;47.324;8.548;2023-06-10T05:27:19;8.45;;;7.75;;
32810;SDS011;65470;47.324;8.548;2023-06-10T05:29:46;8.38;;;7.57;;
32810;SDS011;65470;47.324;8.548;2023-06-10T05:32:11;7.65;;;6.75;;
32810;SDS011;65470;47.324;8.548;2023-06-10T05:34:37;9.57;;;7.45;;
32810;SDS011;65470;47.324;8.548;2023-06-10T05:37:03;10.05;;;7.63;;
32810;SDS011;65470;47.324;8.548;2023-06-10T05:39:29;8.65;;;7.30;;
32810;SDS011;65470;47.324;8.548;2023-06-10T05:41:55;10.27;;;7.47;;
32810;SDS011;65470;47.324;8.548;2023-06-10T05:44:20;8.45;;;7.60;;
32810;SDS011;65470;47.324;8.548;2023-06-10T05:46:46;8.88;;;8.07;;
32810;SDS011;65470;47.324;8.548;2023-06-10T05:49:12;8.63;;;7.70;;
32810;SDS011;65470;47.324;8.548;2023-06-10T05:51:37;9.05;;;8.25;;
32810;SDS011;65470;47.324;8.548;2023-06-10T05:54:03;8.00;;;7.30;;
32810;SDS011;65470;47.324;8.548;2023-06-10T05:56:29;8.10;;;7.30;;
32810;SDS011;65470;47.324;8.548;2023-06-10T05:58:54;8.10;;;7.38;;
32810;SDS011;65470;47.324;8.548;2023-06-10T06:01:21;8.80;;;8.00;;
32810;SDS011;65470;47.324;8.548;2023-06-10T06:03:46;8.40;;;7.57;;
32810;SDS011;65470;47.324;8.548;2023-06-10T06:06:12;7.80;;;7.10;;
32810;SDS011;65470;47.324;8.548;2023-06-10T06:08:37;11.48;;;8.88;;
32810;SDS011;65470;47.324;8.548;2023-06-10T06:11:03;9.13;;;8.23;;
32810;SDS011;65470;47.324;8.548;2023-06-10T06:13:29;8.68;;;7.80;;
32810;SDS011;65470;47.324;8.548;2023-06-10T06:15:54;10.63;;;8.30;;
32810;SDS011;65470;47.324;8.548;2023-06-10T06:18:20;8.73;;;7.72;;
32810;SDS011;65470;47.324;8.548;2023-06-10T06:20:45;11.60;;;8.88;;
32810;SDS011;65470;47.324;8.548;2023-06-10T06:23:11;9.77;;;8.88;;
32810;SDS011;65470;47.324;8.548;2023-06-10T06:25:37;9.52;;;8.63;;
32810;SDS011;65470;47.324;8.548;2023-06-10T06:28:05;10.70;;;8.73;;
32810;SDS011;65470;47.324;8.548;2023-06-10T06:30:32;10.57;;;7.88;;
32810;SDS011;65470;47.324;8.548;2023-06-10T06:32:58;10.57;;;8.77;;
32810;SDS011;65470;47.324;8.548;2023-06-10T06:35:24;8.55;;;7.75;;
32810;SDS011;65470;47.324;8.548;2023-06-10T06:37:49;12.73;;;8.40;;
32810;SDS011;65470;47.324;8.548;2023-06-10T06:40:15;8.70;;;7.78;;
32810;SDS011;65470;47.324;8.548;2023-06-10T06:42:40;9.18;;;8.02;;
32810;SDS011;65470;47.324;8.548;2023-06-10T06:45:06;10.65;;;8.80;;
32810;SDS011;65470;47.324;8.548;2023-06-10T06:47:32;10.35;;;8.20;;
32810;SDS011;65470;47.324;8.548;2023-06-10T06:49:58;9.00;;;8.07;;
32810;SDS011;65470;47.324;8.548;2023-06-10T06:52:23;9.38;;;8.48;;
32810;SDS011;65470;47.324;8.548;2023-06-10T06:54:49;9.23;;;8.43;;
32810;SDS011;65470;47.324;8.548;2023-06-10T06:57:14;11.45;;;9.20;;
32810;SDS011;65470;47.324;8.548;2023-06-10T06:59:40;8.73;;;7.88;;
32810;SDS011;65470;47.324;8.548;2023-06-10T07:02:06;8.93;;;8.05;;
32810;SDS011;65470;47.324;8.548;2023-06-10T07:04:31;10.70;;;8.88;;
32810;SDS011;65470;47.324;8.548;2023-06-10T07:06:57;8.68;;;7.88;;
32810;SDS011;65470;47.324;8.548;2023-06-10T07:09:22;9.43;;;8.48;;
32810;SDS011;65470;47.324;8.548;2023-06-10T07:11:48;9.93;;;8.98;;
32810;SDS011;65470;47.324;8.548;2023-06-10T07:14:14;9.85;;;8.85;;
32810;SDS011;65470;47.324;8.548;2023-06-10T07:16:39;10.02;;;8.95;;
32810;SDS011;65470;47.324;8.548;2023-06-10T07:19:05;10.68;;;8.30;;
32810;SDS011;65470;47.324;8.548;2023-06-10T07:21:31;10.43;;;7.80;;
32810;SDS011;65470;47.324;8.548;2023-06-10T07:23:57;9.07;;;8.25;;
32810;SDS011;65470;47.324;8.548;2023-06-10T07:26:23;9.43;;;8.45;;
32810;SDS011;65470;47.324;8.548;2023-06-10T07:28:49;10.38;;;8.48;;
32810;SDS011;65470;47.324;8.548;2023-06-10T07:31:14;12.73;;;8.52;;
32810;SDS011;65470;47.324;8.548;2023-06-10T07:33:40;9.57;;;7.68;;
32810;SDS011;65470;47.324;8.548;2023-06-10T07:36:06;12.77;;;8.20;;
32810;SDS011;65470;47.324;8.548;2023-06-10T07:38:32;10.40;;;7.95;;
32810;SDS011;65470;47.324;8.548;2023-06-10T07:40:58;8.85;;;7.95;;
32810;SDS011;65470;47.324;8.548;2023-06-10T07:43:24;9.00;;;8.20;;
32810;SDS011;65470;47.324;8.548;2023-06-10T07:45:50;11.23;;;7.43;;
32810;SDS011;65470;47.324;8.548;2023-06-10T07:48:15;8.20;;;7.53;;
32810;SDS011;65470;47.324;8.548;2023-06-10T07:50:41;11.13;;;7.47;;
32810;SDS011;65470;47.324;8.548;2023-06-10T07:53:07;11.20;;;8.38;;
32810;SDS011;65470;47.324;8.548;2023-06-10T07:55:32;10.25;;;9.15;;
32810;SDS011;65470;47.324;8.548;2023-06-10T07:57:58;8.55;;;7.10;;
32810;SDS011;65470;47.324;8.548;2023-06-10T08:00:24;8.38;;;7.65;;
32810;SDS011;65470;47.324;8.548;2023-06-10T08:02:49;14.25;;;8.55;;
32810;SDS011;65470;47.324;8.548;2023-06-10T08:05:15;8.30;;;7.53;;
32810;SDS011;65470;47.324;8.548;2023-06-10T08:07:41;7.68;;;7.03;;
32810;SDS011;65470;47.324;8.548;2023-06-10T08:10:07;8.85;;;7.93;;
32810;SDS011;65470;47.324;8.548;2023-06-10T08:12:33;8.10;;;7.40;;
32810;SDS011;65470;47.324;8.548;2023-06-10T08:14:59;10.10;;;8.38;;
32810;SDS011;65470;47.324;8.548;2023-06-10T08:17:25;8.23;;;7.20;;
32810;SDS011;65470;47.324;8.548;2023-06-10T08:19:50;12.25;;;7.72;;
32810;SDS011;65470;47.324;8.548;2023-06-10T08:22:16;9.50;;;8.35;;
32810;SDS011;65470;47.324;8.548;2023-06-10T08:24:42;16.60;;;7.93;;
32810;SDS011;65470;47.324;8.548;2023-06-10T08:27:08;11.07;;;7.85;;
32810;SDS011;65470;47.324;8.548;2023-06-10T08:29:33;12.27;;;7.43;;
32810;SDS011;65470;47.324;8.548;2023-06-10T08:31:59;8.05;;;7.25;;
32810;SDS011;65470;47.324;8.548;2023-06-10T08:34:25;8.18;;;7.35;;
32810;SDS011;65470;47.324;8.548;2023-06-10T08:36:51;8.77;;;7.70;;
32810;SDS011;65470;47.324;8.548;2023-06-10T08:39:18;8.40;;;7.65;;
32810;SDS011;65470;47.324;8.548;2023-06-10T08:41:45;7.65;;;6.95;;
32810;SDS011;65470;47.324;8.548;2023-06-10T08:44:36;10.20;;;7.25;;
32810;SDS011;65470;47.324;8.548;2023-06-10T08:47:06;7.03;;;6.53;;
32810;SDS011;65470;47.324;8.548;2023-06-10T08:49:45;8.60;;;7.38;;
32810;SDS011;65470;47.324;8.548;2023-06-10T08:52:21;10.25;;;8.40;;
32810;SDS011;65470;47.324;8.548;2023-06-10T08:54:54;8.35;;;7.63;;
32810;SDS011;65470;47.324;8.548;2023-06-10T08:57:23;8.30;;;7.47;;
32810;SDS011;65470;47.324;8.548;2023-06-10T08:59:51;8.70;;;7.90;;
32810;SDS011;65470;47.324;8.548;2023-06-10T09:02:18;8.05;;;7.25;;
32810;SDS011;65470;47.324;8.548;2023-06-10T09:04:45;10.52;;;8.40;;
32810;SDS011;65470;47.324;8.548;2023-06-10T09:07:13;8.85;;;8.05;;
32810;SDS011;65470;47.324;8.548;2023-06-10T09:09:40;9.02;;;7.82;;
32810;SDS011;65470;47.324;8.548;2023-06-10T09:12:08;16.58;;;13.82;;
32810;SDS011;65470;47.324;8.548;2023-06-10T09:14:34;13.50;;;12.20;;
32810;SDS011;65470;47.324;8.548;2023-06-10T09:17:00;10.85;;;8.75;;
32810;SDS011;65470;47.324;8.548;2023-06-10T09:19:26;17.13;;;10.25;;
32810;SDS011;65470;47.324;8.548;2023-06-10T09:21:53;14.02;;;12.55;;
32810;SDS011;65470;47.324;8.548;2023-06-10T09:24:19;19.25;;;17.33;;
32810;SDS011;65470;47.324;8.548;2023-06-10T09:26:47;11.82;;;10.82;;
32810;SDS011;65470;47.324;8.548;2023-06-10T09:29:13;8.93;;;8.02;;
32810;SDS011;65470;47.324;8.548;2023-06-10T09:31:39;10.85;;;8.82;;
32810;SDS011;65470;47.324;8.548;2023-06-10T09:34:09;8.18;;;7.47;;
32810;SDS011;65470;47.324;8.548;2023-06-10T09:36:38;10.98;;;10.00;;
32810;SDS011;65470;47.324;8.548;2023-06-10T09:39:05;10.48;;;9.38;;
32810;SDS011;65470;47.324;8.548;2023-06-10T09:41:40;12.43;;;11.10;;
32810;SDS011;65470;47.324;8.548;2023-06-10T09:46:39;7.80;;;7.10;;
32810;SDS011;65470;47.324;8.548;2023-06-10T09:49:05;10.45;;;7.90;;
32810;SDS011;65470;47.324;8.548;2023-06-10T09:51:31;8.00;;;7.30;;
32810;SDS011;65470;47.324;8.548;2023-06-10T09:53:57;10.48;;;9.43;;
32810;SDS011;65470;47.324;8.548;2023-06-10T09:56:33;10.75;;;8.23;;
32810;SDS011;65470;47.324;8.548;2023-06-10T09:59:00;8.45;;;7.65;;
32810;SDS011;65470;47.324;8.548;2023-06-10T10:01:26;7.45;;;6.75;;
32810;SDS011;65470;47.324;8.548;2023-06-10T10:03:51;9.07;;;8.30;;
32810;SDS011;65470;47.324;8.548;2023-06-10T10:06:18;9.60;;;8.80;;
32810;SDS011;65470;47.324;8.548;2023-06-10T10:08:46;10.02;;;7.55;;
32810;SDS011;65470;47.324;8.548;2023-06-10T10:11:19;10.23;;;9.32;;
32810;SDS011;65470;47.324;8.548;2023-06-10T10:13:51;8.50;;;7.90;;
32810;SDS011;65470;47.324;8.548;2023-06-10T10:16:33;9.75;;;8.65;;
32810;SDS011;65470;47.324;8.548;2023-06-10T10:21:53;10.63;;;9.18;;
32810;SDS011;65470;47.324;8.548;2023-06-10T10:24:23;9.00;;;7.75;;
32810;SDS011;65470;47.324;8.548;2023-06-10T10:26:55;8.40;;;7.70;;
32810;SDS011;65470;47.324;8.548;2023-06-10T10:29:30;7.88;;;6.63;;
32810;SDS011;65470;47.324;8.548;2023-06-10T10:32:01;8.75;;;8.05;;
32810;SDS011;65470;47.324;8.548;2023-06-10T10:35:03;8.25;;;7.00;;
32810;SDS011;65470;47.324;8.548;2023-06-10T10:37:32;9.80;;;6.82;;
32810;SDS011;65470;47.324;8.548;2023-06-10T10:39:59;8.10;;;7.40;;
32810;SDS011;65470;47.324;8.548;2023-06-10T10:42:26;12.23;;;6.90;;
32810;SDS011;65470;47.324;8.548;2023-06-10T10:44:53;7.82;;;7.13;;
32810;SDS011;65470;47.324;8.548;2023-06-10T10:47:22;7.75;;;7.05;;
32810;SDS011;65470;47.324;8.548;2023-06-10T10:49:54;9.73;;;7.18;;
32810;SDS011;65470;47.324;8.548;2023-06-10T10:52:20;7.90;;;7.10;;
32810;SDS011;65470;47.324;8.548;2023-06-10T10:54:46;8.55;;;7.88;;
32810;SDS011;65470;47.324;8.548;2023-06-10T10:57:16;7.40;;;6.88;;
32810;SDS011;65470;47.324;8.548;2023-06-10T11:02:37;7.90;;;7.22;;
32810;SDS011;65470;47.324;8.548;2023-06-10T11:05:08;8.35;;;7.50;;
32810;SDS011;65470;47.324;8.548;2023-06-10T11:07:35;9.15;;;7.93;;
32810;SDS011;65470;47.324;8.548;2023-06-10T11:10:02;11.82;;;8.00;;
32810;SDS011;65470;47.324;8.548;2023-06-10T11:15:07;8.35;;;7.63;;
32810;SDS011;65470;47.324;8.548;2023-06-10T11:17:33;8.45;;;7.57;;
32810;SDS011;65470;47.324;8.548;2023-06-10T11:19:59;10.48;;;8.70;;
32810;SDS011;65470;47.324;8.548;2023-06-10T11:22:25;8.88;;;8.00;;
32810;SDS011;65470;47.324;8.548;2023-06-10T11:24:50;8.98;;;8.02;;
32810;SDS011;65470;47.324;8.548;2023-06-10T11:27:23;9.40;;;8.55;;
32810;SDS011;65470;47.324;8.548;2023-06-10T11:32:30;9.63;;;8.25;;
32810;SDS011;65470;47.324;8.548;2023-06-10T11:34:57;8.07;;;7.32;;
32810;SDS011;65470;47.324;8.548;2023-06-10T11:37:23;8.43;;;7.70;;
32810;SDS011;65470;47.324;8.548;2023-06-10T11:39:55;11.30;;;8.40;;
32810;SDS011;65470;47.324;8.548;2023-06-10T11:42:21;8.45;;;7.65;;
32810;SDS011;65470;47.324;8.548;2023-06-10T11:44:48;8.07;;;7.47;;
32810;SDS011;65470;47.324;8.548;2023-06-10T11:47:15;10.38;;;6.70;;
32810;SDS011;65470;47.324;8.548;2023-06-10T11:49:40;9.00;;;6.75;;
32810;SDS011;65470;47.324;8.548;2023-06-10T11:52:06;10.10;;;6.75;;
32810;SDS011;65470;47.324;8.548;2023-06-10T11:54:32;9.00;;;6.63;;
32810;SDS011;65470;47.324;8.548;2023-06-10T11:56:58;7.72;;;6.78;;
32810;SDS011;65470;47.324;8.548;2023-06-10T11:59:26;8.07;;;7.47;;
32810;SDS011;65470;47.324;8.548;2023-06-10T12:01:52;9.60;;;7.88;;
32810;SDS011;65470;47.324;8.548;2023-06-10T12:04:18;7.47;;;6.78;;
32810;SDS011;65470;47.324;8.548;2023-06-10T12:06:50;9.05;;;7.22;;
32810;SDS011;65470;47.324;8.548;2023-06-10T12:09:24;11.75;;;7.40;;
32810;SDS011;65470;47.324;8.548;2023-06-10T12:11:55;7.75;;;7.15;;
32810;SDS011;65470;47.324;8.548;2023-06-10T12:20:01;8.13;;;7.32;;
32810;SDS011;65470;47.324;8.548;2023-06-10T12:22:41;10.98;;;6.68;;
32810;SDS011;65470;47.324;8.548;2023-06-10T12:25:08;7.70;;;6.85;;
32810;SDS011;65470;47.324;8.548;2023-06-10T12:27:35;8.70;;;7.15;;
32810;SDS011;65470;47.324;8.548;2023-06-10T12:30:02;7.65;;;6.95;;
32810;SDS011;65470;47.324;8.548;2023-06-10T12:32:43;7.80;;;7.13;;
32810;SDS011;65470;47.324;8.548;2023-06-10T12:35:13;7.22;;;6.63;;
32810;SDS011;65470;47.324;8.548;2023-06-10T12:37:42;7.82;;;7.20;;
32810;SDS011;65470;47.324;8.548;2023-06-10T12:40:25;7.90;;;7.18;;
32810;SDS011;65470;47.324;8.548;2023-06-10T12:42:52;7.70;;;6.97;;
32810;SDS011;65470;47.324;8.548;2023-06-10T12:45:26;7.90;;;7.13;;
32810;SDS011;65470;47.324;8.548;2023-06-10T12:50:43;6.80;;;6.30;;
32810;SDS011;65470;47.324;8.548;2023-06-10T12:53:10;6.60;;;6.03;;
32810;SDS011;65470;47.324;8.548;2023-06-10T12:55:36;7.22;;;6.57;;
32810;SDS011;65470;47.324;8.548;2023-06-10T12:58:03;6.88;;;6.22;;
32810;SDS011;65470;47.324;8.548;2023-06-10T13:00:29;7.10;;;6.45;;
32810;SDS011;65470;47.324;8.548;2023-06-10T13:02:55;7.57;;;6.85;;
32810;SDS011;65470;47.324;8.548;2023-06-10T13:05:22;6.63;;;5.80;;
32810;SDS011;65470;47.324;8.548;2023-06-10T13:07:48;8.43;;;5.82;;
32810;SDS011;65470;47.324;8.548;2023-06-10T13:10:14;6.43;;;5.85;;
32810;SDS011;65470;47.324;8.548;2023-06-10T13:12:41;6.00;;;5.50;;
32810;SDS011;65470;47.324;8.548;2023-06-10T13:15:07;6.20;;;5.70;;
32810;SDS011;65470;47.324;8.548;2023-06-10T13:17:33;7.80;;;5.13;;
32810;SDS011;65470;47.324;8.548;2023-06-10T13:20:01;7.00;;;6.03;;
32810;SDS011;65470;47.324;8.548;2023-06-10T13:22:30;5.88;;;5.28;;
32810;SDS011;65470;47.324;8.548;2023-06-10T13:24:58;5.78;;;5.32;;
32810;SDS011;65470;47.324;8.548;2023-06-10T13:27:24;8.98;;;5.60;;
32810;SDS011;65470;47.324;8.548;2023-06-10T13:29:50;6.28;;;5.78;;
32810;SDS011;65470;47.324;8.548;2023-06-10T13:32:15;7.00;;;5.25;;
32810;SDS011;65470;47.324;8.548;2023-06-10T13:34:41;6.00;;;5.47;;
32810;SDS011;65470;47.324;8.548;2023-06-10T13:37:07;6.40;;;5.72;;
32810;SDS011;65470;47.324;8.548;2023-06-10T13:39:32;7.00;;;6.13;;
32810;SDS011;65470;47.324;8.548;2023-06-10T13:41:58;6.47;;;5.80;;
32810;SDS011;65470;47.324;8.548;2023-06-10T13:44:24;5.78;;;5.32;;
32810;SDS011;65470;47.324;8.548;2023-06-10T13:46:50;6.85;;;6.03;;
32810;SDS011;65470;47.324;8.548;2023-06-10T13:49:15;6.35;;;5.72;;
32810;SDS011;65470;47.324;8.548;2023-06-10T13:51:41;6.90;;;6.20;;
32810;SDS011;65470;47.324;8.548;2023-06-10T13:54:07;6.25;;;5.75;;
32810;SDS011;65470;47.324;8.548;2023-06-10T13:56:32;6.38;;;5.88;;
32810;SDS011;65470;47.324;8.548;2023-06-10T13:59:03;6.63;;;6.05;;
32810;SDS011;65470;47.324;8.548;2023-06-10T14:01:29;6.78;;;6.15;;
32810;SDS011;65470;47.324;8.548;2023-06-10T14:03:54;7.00;;;6.13;;
32810;SDS011;65470;47.324;8.548;2023-06-10T14:06:20;6.03;;;5.50;;
32810;SDS011;65470;47.324;8.548;2023-06-10T14:08:46;6.53;;;6.00;;
32810;SDS011;65470;47.324;8.548;2023-06-10T14:11:11;8.02;;;6.22;;
32810;SDS011;65470;47.324;8.548;2023-06-10T14:13:37;6.80;;;6.10;;
32810;SDS011;65470;47.324;8.548;2023-06-10T14:16:05;7.32;;;6.13;;
32810;SDS011;65470;47.324;8.548;2023-06-10T14:18:31;6.30;;;5.80;;
32810;SDS011;65470;47.324;8.548;2023-06-10T14:20:57;8.90;;;6.35;;
32810;SDS011;65470;47.324;8.548;2023-06-10T14:23:22;7.13;;;6.43;;
32810;SDS011;65470;47.324;8.548;2023-06-10T14:25:49;6.85;;;6.30;;
32810;SDS011;65470;47.324;8.548;2023-06-10T14:28:15;7.00;;;6.40;;
32810;SDS011;65470;47.324;8.548;2023-06-10T14:30:40;6.75;;;6.18;;
32810;SDS011;65470;47.324;8.548;2023-06-10T14:33:06;7.70;;;5.88;;
32810;SDS011;65470;47.324;8.548;2023-06-10T14:35:31;7.28;;;6.47;;
32810;SDS011;65470;47.324;8.548;2023-06-10T14:37:57;7.25;;;6.57;;
32810;SDS011;65470;47.324;8.548;2023-06-10T14:40:23;7.03;;;6.53;;
32810;SDS011;65470;47.324;8.548;2023-06-10T14:42:49;10.50;;;6.03;;
32810;SDS011;65470;47.324;8.548;2023-06-10T14:45:15;8.32;;;6.65;;
32810;SDS011;65470;47.324;8.548;2023-06-10T14:47:41;8.13;;;6.40;;
32810;SDS011;65470;47.324;8.548;2023-06-10T14:50:06;6.60;;;6.00;;
32810;SDS011;65470;47.324;8.548;2023-06-10T14:52:32;6.40;;;5.82;;
32810;SDS011;65470;47.324;8.548;2023-06-10T14:54:58;7.90;;;5.95;;
32810;SDS011;65470;47.324;8.548;2023-06-10T14:57:23;7.00;;;6.30;;
32810;SDS011;65470;47.324;8.548;2023-06-10T14:59:49;6.35;;;5.82;;
32810;SDS011;65470;47.324;8.548;2023-06-10T15:02:15;6.68;;;5.50;;
32810;SDS011;65470;47.324;8.548;2023-06-10T15:04:41;6.47;;;5.97;;
32810;SDS011;65470;47.324;8.548;2023-06-10T15:07:06;6.07;;;5.57;;
32810;SDS011;65470;47.324;8.548;2023-06-10T15:09:32;6.50;;;6.00;;
32810;SDS011;65470;47.324;8.548;2023-06-10T15:11:58;6.47;;;5.90;;
32810;SDS011;65470;47.324;8.548;2023-06-10T15:14:24;6.78;;;6.07;;